Time;durP1;ratioP1;P1;durP2;ratioP2;P2;SDS_P1;SDS_P2;PMS_P1;PMS_P2;Temp;Humidity;BMP_temperature;BMP_pressure;BME280_temperature;BME280_humidity;BME280_pressure;Samples;Min_cycle;Max_cycle;Signal;HPM_P1;HPM_P2
2021/12/31 00:00:31;;;;;;;10.45;3.08;;;;;;;-145.00;100.00;60578.66;5074888;28;20060;-53
2021/12/31 00:02:59;;;;;;;12.95;3.25;;;;;;;-145.00;100.00;60578.66;5074053;28;20436;-52
2021/12/31 00:05:29;;;;;;;12.63;3.00;;;;;;;-145.00;100.00;60578.66;5073465;28;20131;-52
2021/12/31 00:07:57;;;;;;;11.75;3.00;;;;;;;-145.00;100.00;60578.66;5073939;28;20059;-50
2021/12/31 00:10:26;;;;;;;14.35;2.70;;;;;;;-145.00;100.00;60578.66;5077176;28;20052;-51
2021/12/31 00:12:56;;;;;;;9.23;2.83;;;;;;;-145.00;100.00;60578.66;5077823;28;20057;-51
2021/12/31 00:15:25;;;;;;;10.25;2.95;;;;;;;-145.00;100.00;60578.66;5077251;28;20048;-52
2021/12/31 00:17:53;;;;;;;14.05;3.17;;;;;;;-145.00;100.00;60578.66;5077996;28;20554;-50
2021/12/31 00:20:24;;;;;;;11.13;3.30;;;;;;;-145.00;100.00;60578.66;5078893;28;20064;-52
2021/12/31 00:23:05;;;;;;;12.15;3.70;;;;;;;-145.00;100.00;60578.66;5077098;28;20067;-51
2021/12/31 00:25:35;;;;;;;18.87;3.17;;;;;;;-145.00;100.00;60578.66;5078478;28;20056;-52
2021/12/31 00:28:04;;;;;;;10.70;3.28;;;;;;;-145.00;100.00;60578.66;5077299;28;20302;-51
2021/12/31 00:30:32;;;;;;;21.35;3.08;;;;;;;-145.00;100.00;60578.66;5078299;28;20064;-51
2021/12/31 00:33:01;;;;;;;16.83;3.45;;;;;;;-145.00;100.00;60578.66;5077137;28;20056;-51
2021/12/31 00:35:30;;;;;;;17.13;3.60;;;;;;;-145.00;100.00;60578.66;5077086;28;20056;-52
2021/12/31 00:38:00;;;;;;;15.32;3.80;;;;;;;-145.00;100.00;60578.66;5078191;28;20064;-50
2021/12/31 00:40:28;;;;;;;15.10;3.10;;;;;;;-145.00;100.00;60578.66;5078141;28;20056;-50
2021/12/31 00:42:57;;;;;;;13.63;2.70;;;;;;;-145.00;100.00;60578.66;5077250;28;20078;-52
2021/12/31 00:45:25;;;;;;;9.77;2.90;;;;;;;-145.00;100.00;60578.66;5076681;28;20056;-50
2021/12/31 00:47:54;;;;;;;14.98;3.50;;;;;;;-145.00;100.00;60578.66;5077087;28;20059;-52
2021/12/31 00:50:22;;;;;;;12.85;3.28;;;;;;;-145.00;100.00;60578.66;5076804;28;20052;-50
2021/12/31 00:52:50;;;;;;;11.57;3.05;;;;;;;-145.00;100.00;60578.66;5076777;28;20526;-50
2021/12/31 00:55:20;;;;;;;12.68;3.35;;;;;;;-145.00;100.00;60578.66;5077587;28;20071;-52
2021/12/31 00:57:49;;;;;;;15.48;3.50;;;;;;;-145.00;100.00;60578.66;5077831;28;20392;-51
2021/12/31 01:00:18;;;;;;;11.65;3.42;;;;;;;-145.00;100.00;60578.66;5076668;28;20578;-52
2021/12/31 01:02:47;;;;;;;9.52;3.20;;;;;;;-145.00;100.00;60578.66;5076593;28;20057;-50
2021/12/31 01:05:17;;;;;;;7.53;2.55;;;;;;;-145.00;100.00;60578.66;5077506;28;20091;-51
2021/12/31 01:07:45;;;;;;;14.73;3.53;;;;;;;-145.00;100.00;60578.66;5076428;28;20064;-51
2021/12/31 01:10:17;;;;;;;13.13;3.60;;;;;;;-145.00;100.00;60578.66;5076465;28;20052;-52
2021/12/31 01:12:47;;;;;;;13.18;3.35;;;;;;;-145.00;100.00;60578.66;5076205;28;20064;-52
2021/12/31 01:15:22;;;;;;;12.07;3.53;;;;;;;-145.00;100.00;60578.66;5076136;28;20056;-50
2021/12/31 01:18:19;;;;;;;14.02;3.70;;;;;;;-145.00;100.00;60578.66;5076426;28;20222;-52
2021/12/31 01:20:47;;;;;;;15.23;4.25;;;;;;;-145.00;100.00;60578.66;5075492;28;20060;-52
2021/12/31 01:23:17;;;;;;;16.98;3.88;;;;;;;-145.00;100.00;60578.66;5077077;28;20404;-52
2021/12/31 01:25:46;;;;;;;13.85;4.00;;;;;;;-145.00;100.00;60578.66;5077006;28;20052;-50
2021/12/31 01:28:16;;;;;;;17.45;3.40;;;;;;;-145.00;100.00;60578.66;5076647;28;20052;-52
2021/12/31 01:30:44;;;;;;;16.35;4.63;;;;;;;-145.00;100.00;60578.66;5077215;28;20064;-51
2021/12/31 01:33:13;;;;;;;14.43;3.60;;;;;;;-145.00;100.00;60578.66;5076314;28;20059;-49
2021/12/31 01:35:41;;;;;;;12.57;4.00;;;;;;;-145.00;100.00;60578.66;5077142;28;20060;-52
2021/12/31 01:38:09;;;;;;;19.52;5.90;;;;;;;-145.00;100.00;60578.66;5076237;28;20060;-49
2021/12/31 01:40:37;;;;;;;11.45;3.95;;;;;;;-145.00;100.00;60578.66;5075871;28;20052;-52
2021/12/31 01:43:05;;;;;;;13.98;4.28;;;;;;;-145.00;100.00;60578.66;5076162;28;20052;-52
2021/12/31 01:45:43;;;;;;;17.17;5.20;;;;;;;-145.00;100.00;60578.66;5076926;28;20061;-52
2021/12/31 01:48:23;;;;;;;16.10;4.35;;;;;;;-145.00;100.00;60578.66;5076218;28;20056;-50
2021/12/31 01:50:52;;;;;;;14.18;5.07;;;;;;;-145.00;100.00;60578.66;5076580;28;20060;-49
2021/12/31 01:53:23;;;;;;;15.38;4.45;;;;;;;-145.00;100.00;60578.66;5076486;28;20064;-50
2021/12/31 01:55:52;;;;;;;13.93;4.43;;;;;;;-145.00;100.00;60578.66;5076769;28;20398;-52
2021/12/31 01:58:24;;;;;;;13.40;4.63;;;;;;;-145.00;100.00;60578.66;5075798;28;20060;-50
2021/12/31 02:00:54;;;;;;;14.85;4.72;;;;;;;-145.00;100.00;60578.66;5075556;28;20060;-52
2021/12/31 02:03:23;;;;;;;17.17;4.18;;;;;;;-145.00;100.00;60578.66;5075162;28;20056;-52
2021/12/31 02:05:52;;;;;;;12.90;4.38;;;;;;;-145.00;100.00;60578.66;5076497;28;20092;-51
2021/12/31 02:08:20;;;;;;;16.73;4.90;;;;;;;-145.00;100.00;60578.66;5075576;28;20127;-53
2021/12/31 02:10:50;;;;;;;11.15;4.03;;;;;;;-145.00;100.00;60578.66;5076051;28;20060;-51
2021/12/31 02:13:19;;;;;;;14.95;3.97;;;;;;;-145.00;100.00;60578.66;5075265;28;20052;-50
2021/12/31 02:15:47;;;;;;;13.35;5.15;;;;;;;-145.00;100.00;60578.66;5075199;28;20071;-50
2021/12/31 02:18:17;;;;;;;18.15;5.00;;;;;;;-145.00;100.00;60578.66;5075036;28;20057;-51
2021/12/31 02:20:48;;;;;;;17.52;5.78;;;;;;;-145.00;100.00;60578.66;5075861;28;20052;-53
2021/12/31 02:23:17;;;;;;;12.85;5.25;;;;;;;-145.00;100.00;60578.66;5076247;28;20053;-52
2021/12/31 02:25:45;;;;;;;20.38;5.88;;;;;;;-145.00;100.00;60578.66;5074758;28;20527;-52
2021/12/31 02:28:13;;;;;;;21.30;6.45;;;;;;;-145.00;100.00;60578.66;5075134;28;20056;-52
2021/12/31 02:30:43;;;;;;;14.23;5.93;;;;;;;-145.00;100.00;60578.66;5075871;28;20131;-52
2021/12/31 02:33:11;;;;;;;24.67;5.88;;;;;;;-145.00;100.00;60578.66;5074451;28;20068;-52
2021/12/31 02:35:40;;;;;;;16.90;5.72;;;;;;;-145.00;100.00;60578.66;5075727;28;20060;-52
2021/12/31 02:38:10;;;;;;;15.25;5.93;;;;;;;-145.00;100.00;60578.66;5074745;28;20071;-50
2021/12/31 02:40:39;;;;;;;15.40;5.53;;;;;;;-145.00;100.00;60578.66;5075021;28;20071;-49
2021/12/31 02:43:07;;;;;;;13.10;5.72;;;;;;;-145.00;100.00;60578.66;5074986;28;20067;-51
2021/12/31 02:45:37;;;;;;;14.85;6.10;;;;;;;-145.00;100.00;60578.66;5075532;28;20053;-51
2021/12/31 02:48:06;;;;;;;13.23;5.53;;;;;;;-145.00;100.00;60578.66;5075120;28;20110;-51
2021/12/31 02:50:38;;;;;;;15.32;6.03;;;;;;;-145.00;100.00;60578.66;5075659;28;20396;-52
2021/12/31 02:53:10;;;;;;;11.32;5.10;;;;;;;-145.00;100.00;60578.66;5074212;28;20048;-52
2021/12/31 02:55:39;;;;;;;21.08;4.88;;;;;;;-145.00;100.00;60578.66;5074268;28;20066;-50
2021/12/31 02:58:07;;;;;;;18.13;5.55;;;;;;;-145.00;100.00;60578.66;5075286;28;20057;-50
2021/12/31 03:00:39;;;;;;;12.25;5.38;;;;;;;-145.00;100.00;60578.66;5074685;28;20053;-50
2021/12/31 03:03:09;;;;;;;15.25;5.28;;;;;;;-145.00;100.00;60578.66;5075300;28;20392;-51
2021/12/31 03:05:37;;;;;;;10.02;4.35;;;;;;;-145.00;100.00;60578.66;5074076;28;20053;-51
2021/12/31 03:08:08;;;;;;;15.02;4.88;;;;;;;-145.00;100.00;60578.66;5075176;28;20057;-52
2021/12/31 03:10:38;;;;;;;17.02;4.80;;;;;;;-145.00;100.00;60578.66;5075297;28;20512;-52
2021/12/31 03:13:08;;;;;;;14.77;5.85;;;;;;;-145.00;100.00;60578.66;5074836;28;20064;-52
2021/12/31 03:15:37;;;;;;;11.90;4.68;;;;;;;-145.00;100.00;60578.66;5073965;28;20078;-52
2021/12/31 03:18:06;;;;;;;11.63;4.53;;;;;;;-145.00;100.00;60578.66;5075087;28;20052;-52
2021/12/31 03:20:40;;;;;;;11.65;4.88;;;;;;;-145.00;100.00;60578.66;5074751;28;20056;-51
2021/12/31 03:23:09;;;;;;;12.55;4.20;;;;;;;-145.00;100.00;60578.66;5074565;28;20075;-52
2021/12/31 03:25:39;;;;;;;15.52;4.47;;;;;;;-145.00;100.00;60578.66;5074908;28;20060;-52
2021/12/31 03:28:07;;;;;;;12.93;4.78;;;;;;;-145.00;100.00;60578.66;5074389;28;20052;-52
2021/12/31 03:30:35;;;;;;;11.13;4.65;;;;;;;-145.00;100.00;60578.66;5074275;28;20060;-50
2021/12/31 03:33:03;;;;;;;14.18;4.72;;;;;;;-145.00;100.00;60578.66;5074015;28;20059;-52
2021/12/31 03:35:32;;;;;;;16.50;5.47;;;;;;;-145.00;100.00;60578.66;5074527;28;20059;-52
2021/12/31 03:38:00;;;;;;;15.27;5.18;;;;;;;-145.00;100.00;60578.66;5074847;28;20056;-51
2021/12/31 03:40:28;;;;;;;12.48;4.95;;;;;;;-145.00;100.00;60578.66;5074629;28;20060;-52
2021/12/31 03:42:58;;;;;;;11.95;5.03;;;;;;;-145.00;100.00;60578.66;5074811;28;20090;-52
2021/12/31 03:45:26;;;;;;;12.85;4.82;;;;;;;-145.00;100.00;60578.66;5079233;28;20392;-51
2021/12/31 03:47:55;;;;;;;12.77;4.90;;;;;;;-145.00;100.00;60578.66;5078828;28;20483;-52
2021/12/31 03:50:23;;;;;;;11.57;5.00;;;;;;;-145.00;100.00;60578.66;5078241;28;20071;-51
2021/12/31 03:52:51;;;;;;;14.10;5.15;;;;;;;-145.00;100.00;60578.66;5078260;28;20060;-52
2021/12/31 03:55:20;;;;;;;11.20;4.60;;;;;;;-145.00;100.00;60578.66;5077677;28;20052;-50
2021/12/31 03:57:48;;;;;;;15.15;5.13;;;;;;;-145.00;100.00;60578.66;5078137;28;20510;-51
2021/12/31 04:00:18;;;;;;;12.43;5.13;;;;;;;-145.00;100.00;60578.66;5077815;28;20061;-51
2021/12/31 04:02:46;;;;;;;13.13;5.25;;;;;;;-145.00;100.00;60578.66;5078066;28;20057;-50
2021/12/31 04:05:15;;;;;;;10.13;4.53;;;;;;;-145.00;100.00;60578.66;5077470;28;20083;-52
2021/12/31 04:07:43;;;;;;;11.27;4.75;;;;;;;-145.00;100.00;60578.66;5077937;28;20064;-51
2021/12/31 04:10:11;;;;;;;11.60;4.80;;;;;;;-145.00;100.00;60578.66;5077809;28;20071;-51
2021/12/31 04:12:40;;;;;;;15.63;4.93;;;;;;;-145.00;100.00;60578.66;5077872;28;20052;-51
2021/12/31 04:15:09;;;;;;;12.88;4.18;;;;;;;-145.00;100.00;60578.66;5078646;28;20064;-52
2021/12/31 04:17:40;;;;;;;13.20;4.50;;;;;;;-145.00;100.00;60578.66;5077746;28;20416;-53
2021/12/31 04:20:18;;;;;;;13.40;4.82;;;;;;;-145.00;100.00;60578.66;5077356;28;20139;-51
2021/12/31 04:22:52;;;;;;;11.25;4.13;;;;;;;-145.00;100.00;60578.66;5077059;28;20107;-53
2021/12/31 04:25:22;;;;;;;18.30;5.18;;;;;;;-145.00;100.00;60578.66;5077067;28;20534;-52
2021/12/31 04:27:50;;;;;;;11.88;5.22;;;;;;;-145.00;100.00;60578.66;5077236;28;20063;-51
2021/12/31 04:30:19;;;;;;;11.00;4.57;;;;;;;-145.00;100.00;60578.66;5077445;28;20082;-51
2021/12/31 04:32:49;;;;;;;13.18;3.97;;;;;;;-145.00;100.00;60578.66;5077146;28;20053;-52
2021/12/31 04:35:18;;;;;;;12.60;3.70;;;;;;;-145.00;100.00;60578.66;5077186;28;20057;-51
2021/12/31 04:37:47;;;;;;;8.93;4.30;;;;;;;-145.00;100.00;60578.66;5077340;28;20060;-51
2021/12/31 04:40:15;;;;;;;10.15;4.40;;;;;;;-145.00;100.00;60578.66;5077319;28;20060;-52
2021/12/31 04:42:44;;;;;;;9.43;4.00;;;;;;;-145.00;100.00;60578.66;5077261;28;20061;-50
2021/12/31 04:45:14;;;;;;;10.20;4.20;;;;;;;-145.00;100.00;60578.66;5077848;28;20057;-50
2021/12/31 04:47:42;;;;;;;12.63;4.50;;;;;;;-145.00;100.00;60578.66;5078066;28;20436;-52
2021/12/31 04:50:12;;;;;;;9.05;4.68;;;;;;;-145.00;100.00;60578.66;5077115;28;20052;-50
2021/12/31 04:52:41;;;;;;;9.02;4.40;;;;;;;-145.00;100.00;60578.66;5076521;28;20057;-50
2021/12/31 04:55:10;;;;;;;9.23;4.50;;;;;;;-145.00;100.00;60578.66;5075878;28;20492;-50
2021/12/31 04:57:39;;;;;;;12.38;4.57;;;;;;;-145.00;100.00;60578.66;5077586;28;20052;-52
2021/12/31 05:00:09;;;;;;;11.48;4.68;;;;;;;-145.00;100.00;60578.66;5076667;28;20538;-51
2021/12/31 05:02:37;;;;;;;14.38;4.47;;;;;;;-145.00;100.00;60578.66;5077736;28;20063;-53
2021/12/31 05:05:06;;;;;;;11.25;4.07;;;;;;;-145.00;100.00;60578.66;5076310;28;20063;-53
2021/12/31 05:07:36;;;;;;;9.75;4.05;;;;;;;-145.00;100.00;60578.66;5076532;28;20052;-50
2021/12/31 05:10:05;;;;;;;8.30;4.53;;;;;;;-145.00;100.00;60578.66;5077013;28;20060;-51
2021/12/31 05:12:35;;;;;;;12.95;4.30;;;;;;;-145.00;100.00;60578.66;5076439;28;20052;-50
2021/12/31 05:15:06;;;;;;;14.10;6.10;;;;;;;-145.00;100.00;60578.66;5077013;28;20083;-52
2021/12/31 05:17:34;;;;;;;10.90;4.22;;;;;;;-145.00;100.00;60578.66;5076120;28;20056;-52
2021/12/31 05:20:04;;;;;;;12.45;5.35;;;;;;;-145.00;100.00;60578.66;5077483;28;20057;-52
2021/12/31 05:22:33;;;;;;;10.57;4.95;;;;;;;-145.00;100.00;60578.66;5076210;28;20053;-50
2021/12/31 05:25:03;;;;;;;18.38;5.72;;;;;;;-145.00;100.00;60578.66;5076883;28;20078;-51
2021/12/31 05:27:31;;;;;;;14.40;4.57;;;;;;;-145.00;100.00;60578.66;5076613;28;20059;-52
2021/12/31 05:29:59;;;;;;;13.98;5.00;;;;;;;-145.00;100.00;60578.66;5077183;28;20052;-52
2021/12/31 05:32:27;;;;;;;13.65;5.00;;;;;;;-145.00;100.00;60578.66;5076673;28;20059;-52
2021/12/31 05:34:55;;;;;;;9.90;4.80;;;;;;;-145.00;100.00;60578.66;5077211;28;20057;-53
2021/12/31 05:37:24;;;;;;;8.13;4.50;;;;;;;-145.00;100.00;60578.66;5076000;28;20053;-51
2021/12/31 05:39:52;;;;;;;9.32;4.15;;;;;;;-145.00;100.00;60578.66;5075949;28;20057;-52
2021/12/31 05:42:21;;;;;;;19.90;6.32;;;;;;;-145.00;100.00;60578.66;5075903;28;20070;-50
2021/12/31 05:44:50;;;;;;;14.05;5.53;;;;;;;-145.00;100.00;60578.66;5075590;28;20135;-51
2021/12/31 05:47:18;;;;;;;7.72;4.28;;;;;;;-145.00;100.00;60578.66;5075757;28;20056;-52
2021/12/31 05:49:46;;;;;;;14.27;5.13;;;;;;;-145.00;100.00;60578.66;5075995;28;20444;-52
2021/12/31 05:52:15;;;;;;;18.33;4.93;;;;;;;-145.00;100.00;60578.66;5076018;28;20060;-52
2021/12/31 05:54:44;;;;;;;13.35;5.13;;;;;;;-145.00;100.00;60578.66;5075418;28;20053;-50
2021/12/31 05:57:12;;;;;;;12.77;5.38;;;;;;;-145.00;100.00;60578.66;5076456;28;20060;-52
2021/12/31 05:59:42;;;;;;;12.82;5.60;;;;;;;-145.00;100.00;60578.66;5075550;28;20056;-50
2021/12/31 06:02:10;;;;;;;19.95;6.05;;;;;;;-145.00;100.00;60578.66;5076024;28;20068;-50
2021/12/31 06:04:38;;;;;;;12.90;5.38;;;;;;;-145.00;100.00;60578.66;5076579;28;20057;-51
2021/12/31 06:07:09;;;;;;;14.70;5.57;;;;;;;-145.00;100.00;60578.66;5075332;28;20056;-52
2021/12/31 06:09:38;;;;;;;11.02;5.32;;;;;;;-145.00;100.00;60578.66;5075323;28;20131;-50
2021/12/31 06:12:07;;;;;;;14.32;5.20;;;;;;;-145.00;100.00;60578.66;5076352;28;20395;-52
2021/12/31 06:14:35;;;;;;;10.95;4.28;;;;;;;-145.00;100.00;60578.66;5075023;28;20512;-52
2021/12/31 06:17:08;;;;;;;11.10;5.28;;;;;;;-145.00;100.00;60578.66;5075613;28;20500;-51
2021/12/31 06:19:36;;;;;;;13.35;5.20;;;;;;;-145.00;100.00;60578.66;5075594;28;20060;-51
2021/12/31 06:22:10;;;;;;;13.38;5.07;;;;;;;-145.00;100.00;60578.66;5074782;28;20508;-52
2021/12/31 06:24:39;;;;;;;15.05;4.38;;;;;;;-145.00;100.00;60578.66;5075920;28;20052;-52
2021/12/31 06:27:07;;;;;;;15.90;5.05;;;;;;;-145.00;100.00;60578.66;5074980;28;20052;-52
2021/12/31 06:29:35;;;;;;;14.30;4.95;;;;;;;-145.00;100.00;60578.66;5075248;28;20064;-52
2021/12/31 06:32:06;;;;;;;16.05;5.05;;;;;;;-145.00;100.00;60578.66;5074795;28;20543;-51
2021/12/31 06:34:38;;;;;;;13.43;4.30;;;;;;;-145.00;100.00;60578.66;5075988;28;20059;-50
2021/12/31 06:37:06;;;;;;;14.55;4.63;;;;;;;-145.00;100.00;60578.66;5074752;28;20519;-50
2021/12/31 06:39:35;;;;;;;14.43;4.93;;;;;;;-145.00;100.00;60578.66;5074756;28;20512;-52
2021/12/31 06:42:07;;;;;;;13.25;4.80;;;;;;;-145.00;100.00;60578.66;5074985;28;20067;-49
2021/12/31 06:44:36;;;;;;;13.07;4.35;;;;;;;-145.00;100.00;60578.66;5075400;28;20061;-52
2021/12/31 06:47:07;;;;;;;16.73;4.90;;;;;;;-145.00;100.00;60578.66;5075771;28;20056;-52
2021/12/31 06:49:35;;;;;;;13.27;4.95;;;;;;;-145.00;100.00;60578.66;5075743;28;20098;-52
2021/12/31 06:52:04;;;;;;;13.57;4.88;;;;;;;-145.00;100.00;60578.66;5075622;28;20056;-50
2021/12/31 06:54:32;;;;;;;21.17;5.35;;;;;;;-145.00;100.00;60578.66;5074265;28;20056;-50
2021/12/31 06:57:00;;;;;;;11.85;4.47;;;;;;;-145.00;100.00;60578.66;5074721;28;20057;-51
2021/12/31 06:59:29;;;;;;;15.23;4.90;;;;;;;-145.00;100.00;60578.66;5075541;28;20082;-52
2021/12/31 07:01:58;;;;;;;18.90;4.65;;;;;;;-145.00;100.00;60578.66;5075239;28;20056;-52
2021/12/31 07:04:28;;;;;;;20.48;4.93;;;;;;;-145.00;100.00;60578.66;5074118;28;20052;-52
2021/12/31 07:06:56;;;;;;;15.48;4.75;;;;;;;-145.00;100.00;60578.66;5074349;28;20057;-52
2021/12/31 07:09:30;;;;;;;18.80;4.82;;;;;;;-145.00;100.00;60578.66;5074055;28;20103;-53
2021/12/31 07:11:58;;;;;;;14.35;4.20;;;;;;;-145.00;100.00;60578.66;5074159;28;20052;-51
2021/12/31 07:14:27;;;;;;;21.85;5.25;;;;;;;-145.00;100.00;60578.66;5074031;28;20066;-52
2021/12/31 07:16:56;;;;;;;17.60;4.32;;;;;;;-145.00;100.00;60578.66;5074523;28;20122;-50
2021/12/31 07:19:24;;;;;;;15.48;4.25;;;;;;;-145.00;100.00;60578.66;5073811;28;20055;-52
2021/12/31 07:21:54;;;;;;;21.77;5.20;;;;;;;-145.00;100.00;60578.66;5074499;28;20406;-51
2021/12/31 07:24:22;;;;;;;20.05;5.50;;;;;;;-145.00;100.00;60578.66;5073909;28;20053;-51
2021/12/31 07:26:51;;;;;;;22.38;5.28;;;;;;;-145.00;100.00;60578.66;5074118;28;20056;-52
2021/12/31 07:29:19;;;;;;;20.33;4.78;;;;;;;-145.00;100.00;60578.66;5074023;28;20056;-51
2021/12/31 07:31:48;;;;;;;15.93;5.40;;;;;;;-145.00;100.00;60578.66;5074256;28;20061;-49
2021/12/31 07:34:16;;;;;;;12.57;4.53;;;;;;;-145.00;100.00;60578.66;5074680;28;20087;-52
2021/12/31 07:36:44;;;;;;;17.92;5.28;;;;;;;-145.00;100.00;60578.66;5074315;28;20052;-52
2021/12/31 07:39:14;;;;;;;21.80;4.72;;;;;;;-145.00;100.00;60578.66;5074339;28;20096;-52
2021/12/31 07:41:42;;;;;;;17.98;4.47;;;;;;;-145.00;100.00;60578.66;5074034;28;20063;-52
2021/12/31 07:44:10;;;;;;;19.13;4.20;;;;;;;-145.00;100.00;60578.66;5073722;28;20500;-51
2021/12/31 07:46:40;;;;;;;21.52;4.88;;;;;;;-145.00;100.00;60578.66;5073922;28;20512;-51
2021/12/31 07:49:09;;;;;;;17.13;5.63;;;;;;;-145.00;100.00;60578.66;5074447;28;20063;-51
2021/12/31 07:51:37;;;;;;;21.05;4.43;;;;;;;-145.00;100.00;60578.66;5074069;28;20071;-51
2021/12/31 07:54:05;;;;;;;24.13;5.63;;;;;;;-145.00;100.00;60578.66;5073639;28;20053;-52
2021/12/31 07:56:35;;;;;;;20.80;5.85;;;;;;;-145.00;100.00;60578.66;5074303;28;20389;-51
2021/12/31 07:59:03;;;;;;;19.23;4.88;;;;;;;-145.00;100.00;60578.66;5074678;28;20057;-52
2021/12/31 08:01:31;;;;;;;19.50;5.75;;;;;;;-145.00;100.00;60578.66;5073742;28;20072;-52
2021/12/31 08:04:00;;;;;;;19.15;4.63;;;;;;;-145.00;100.00;60578.66;5074632;28;20060;-51
2021/12/31 08:06:28;;;;;;;24.17;4.43;;;;;;;-145.00;100.00;60578.66;5074093;28;20420;-50
2021/12/31 08:08:56;;;;;;;19.20;4.97;;;;;;;-145.00;100.00;60578.66;5073577;28;20056;-52
2021/12/31 08:11:24;;;;;;;14.88;4.22;;;;;;;-145.00;100.00;60578.66;5073867;28;20416;-52
2021/12/31 08:13:54;;;;;;;22.25;4.65;;;;;;;-145.00;100.00;60578.66;5073654;28;20056;-50
2021/12/31 08:16:22;;;;;;;13.95;5.18;;;;;;;-145.00;100.00;60578.66;5073563;28;20064;-51
2021/12/31 08:18:51;;;;;;;21.52;4.95;;;;;;;-145.00;100.00;60578.66;5073407;28;20059;-50
2021/12/31 08:21:19;;;;;;;15.73;4.53;;;;;;;-145.00;100.00;60578.66;5073539;28;20060;-52
2021/12/31 08:23:48;;;;;;;11.98;4.40;;;;;;;-145.00;100.00;60578.66;5074519;28;20072;-52
2021/12/31 08:26:16;;;;;;;23.20;5.25;;;;;;;-145.00;100.00;60578.66;5073825;28;20052;-49
2021/12/31 08:28:44;;;;;;;12.50;4.07;;;;;;;-145.00;100.00;60578.66;5074638;28;20499;-52
2021/12/31 08:31:14;;;;;;;15.50;5.47;;;;;;;-145.00;100.00;60578.66;5076590;28;20408;-51
2021/12/31 08:33:42;;;;;;;14.80;4.20;;;;;;;-145.00;100.00;60578.66;5076827;28;20519;-51
2021/12/31 08:36:10;;;;;;;16.13;4.13;;;;;;;-145.00;100.00;60578.66;5077406;28;20057;-50
2021/12/31 08:38:38;;;;;;;11.73;3.70;;;;;;;-145.00;100.00;60578.66;5077945;28;20056;-52
2021/12/31 08:41:06;;;;;;;15.85;4.22;;;;;;;-145.00;100.00;60578.66;5077012;28;20052;-51
2021/12/31 08:43:55;;;;;;;11.15;3.55;;;;;;;-145.00;100.00;60578.66;5077005;28;20094;-51
2021/12/31 08:46:25;;;;;;;11.55;4.50;;;;;;;-145.00;100.00;60578.66;5076944;28;20096;-49
2021/12/31 08:48:53;;;;;;;14.20;4.28;;;;;;;-145.00;100.00;60578.66;5076909;28;20056;-51
2021/12/31 08:51:21;;;;;;;18.40;4.32;;;;;;;-145.00;100.00;60578.66;5077093;28;20052;-49
2021/12/31 08:53:51;;;;;;;12.57;4.10;;;;;;;-145.00;100.00;60578.66;5076554;28;20579;-52
2021/12/31 08:56:19;;;;;;;14.48;4.70;;;;;;;-145.00;100.00;60578.66;5077613;28;20059;-51
2021/12/31 08:58:48;;;;;;;10.25;3.65;;;;;;;-145.00;100.00;60578.66;5076704;28;20423;-51
2021/12/31 09:01:16;;;;;;;12.02;3.70;;;;;;;-145.00;100.00;60578.66;5077200;28;20060;-51
2021/12/31 09:03:46;;;;;;;11.02;4.60;;;;;;;-145.00;100.00;60578.66;5077840;28;20064;-52
2021/12/31 09:06:17;;;;;;;13.10;4.00;;;;;;;-145.00;100.00;60578.66;5076531;28;20063;-52
2021/12/31 09:08:46;;;;;;;10.85;3.88;;;;;;;-145.00;100.00;60578.66;5077784;28;20489;-52
2021/12/31 09:11:15;;;;;;;12.80;4.20;;;;;;;-145.00;100.00;60578.66;5077618;28;20056;-52
2021/12/31 09:13:46;;;;;;;12.43;4.00;;;;;;;-145.00;100.00;60578.66;5077553;28;20064;-52
2021/12/31 09:16:14;;;;;;;12.05;4.20;;;;;;;-145.00;100.00;60578.66;5076111;28;20059;-51
2021/12/31 09:18:42;;;;;;;13.48;4.32;;;;;;;-145.00;100.00;60578.66;5076440;28;20103;-51
2021/12/31 09:21:12;;;;;;;9.00;3.67;;;;;;;-145.00;100.00;60578.66;5077446;28;20086;-50
2021/12/31 09:23:40;;;;;;;14.63;3.90;;;;;;;-145.00;100.00;60578.66;5076813;28;20061;-50
2021/12/31 09:26:08;;;;;;;10.32;4.28;;;;;;;-145.00;100.00;60578.66;5076512;28;20053;-51
2021/12/31 09:28:36;;;;;;;11.15;4.22;;;;;;;-145.00;100.00;60578.66;5076436;28;20420;-50
2021/12/31 09:31:09;;;;;;;18.65;4.40;;;;;;;-145.00;100.00;60578.66;5077338;28;20139;-50
2021/12/31 09:33:37;;;;;;;17.63;4.75;;;;;;;-145.00;100.00;60578.66;5076550;28;20566;-52
2021/12/31 09:36:05;;;;;;;13.48;4.07;;;;;;;-145.00;100.00;60578.66;5076341;28;20411;-52
2021/12/31 09:38:35;;;;;;;16.13;4.05;;;;;;;-145.00;100.00;60578.66;5075925;28;20546;-50
2021/12/31 09:41:03;;;;;;;15.40;4.43;;;;;;;-145.00;100.00;60578.66;5075787;28;20057;-49
2021/12/31 09:43:32;;;;;;;23.55;4.70;;;;;;;-145.00;100.00;60578.66;5075857;28;20554;-52
2021/12/31 09:46:00;;;;;;;15.85;4.50;;;;;;;-145.00;100.00;60578.66;5076080;28;20052;-52
2021/12/31 09:48:29;;;;;;;14.75;4.65;;;;;;;-145.00;100.00;60578.66;5075695;28;20522;-50
2021/12/31 09:50:59;;;;;;;15.60;4.60;;;;;;;-145.00;100.00;60578.66;5076565;28;20424;-52
2021/12/31 09:53:27;;;;;;;16.35;5.60;;;;;;;-145.00;100.00;60578.66;5075308;28;20052;-52
2021/12/31 09:55:58;;;;;;;15.50;5.13;;;;;;;-145.00;100.00;60578.66;5075615;28;20052;-51
2021/12/31 09:58:27;;;;;;;17.95;4.90;;;;;;;-145.00;100.00;60578.66;5076312;28;20381;-51
2021/12/31 10:01:00;;;;;;;17.30;4.82;;;;;;;-145.00;100.00;60578.66;5075533;28;20063;-50
2021/12/31 10:03:30;;;;;;;23.00;5.15;;;;;;;-145.00;100.00;60578.66;5075136;28;20148;-50
2021/12/31 10:05:59;;;;;;;21.55;4.85;;;;;;;-145.00;100.00;60578.66;5075418;28;20060;-51
2021/12/31 10:08:29;;;;;;;23.83;5.93;;;;;;;-145.00;100.00;60578.66;5075347;28;20562;-50
2021/12/31 10:11:07;;;;;;;21.55;6.35;;;;;;;-145.00;100.00;60578.66;5075553;28;20057;-52
2021/12/31 10:13:36;;;;;;;21.23;5.63;;;;;;;-145.00;100.00;60578.66;5076336;28;20092;-51
2021/12/31 10:16:05;;;;;;;22.13;6.47;;;;;;;-145.00;100.00;60578.66;5075212;28;20526;-51
2021/12/31 10:18:35;;;;;;;23.85;7.90;;;;;;;-145.00;100.00;60578.66;5075179;28;20088;-50
2021/12/31 10:21:04;;;;;;;28.40;6.65;;;;;;;-145.00;100.00;60578.66;5075611;28;20500;-52
2021/12/31 10:23:33;;;;;;;23.08;6.10;;;;;;;-145.00;100.00;60578.66;5075309;28;20061;-50
2021/12/31 10:26:13;;;;;;;21.70;5.53;;;;;;;-145.00;100.00;60578.66;5075349;28;20052;-52
2021/12/31 10:28:56;;;;;;;25.08;5.68;;;;;;;-145.00;100.00;60578.66;5075309;28;20389;-52
2021/12/31 10:31:28;;;;;;;19.13;5.35;;;;;;;-145.00;100.00;60578.66;5074634;28;20095;-52
2021/12/31 10:33:57;;;;;;;29.65;7.72;;;;;;;-145.00;100.00;60578.66;5074569;28;20528;-50
2021/12/31 10:36:36;;;;;;;21.73;5.45;;;;;;;-145.00;100.00;60578.66;5074841;28;20052;-51
2021/12/31 10:39:18;;;;;;;22.73;6.00;;;;;;;-145.00;100.00;60578.66;5075920;28;20053;-53
2021/12/31 10:41:50;;;;;;;20.90;5.10;;;;;;;-145.00;100.00;60578.66;5075298;28;20063;-52
2021/12/31 10:44:19;;;;;;;18.45;6.35;;;;;;;-145.00;100.00;60578.66;5074414;28;20063;-52
2021/12/31 10:46:48;;;;;;;22.27;4.65;;;;;;;-145.00;100.00;60578.66;5074898;28;20114;-50
2021/12/31 10:49:16;;;;;;;17.95;4.80;;;;;;;-145.00;100.00;60578.66;5074886;28;20060;-50
2021/12/31 10:51:47;;;;;;;18.92;5.50;;;;;;;-145.00;100.00;60578.66;5074533;28;20146;-50
2021/12/31 10:54:28;;;;;;;21.05;4.22;;;;;;;-145.00;100.00;60578.66;5075113;28;20057;-51
2021/12/31 10:56:59;;;;;;;20.57;4.57;;;;;;;-145.00;100.00;60578.66;5074287;28;20539;-51
2021/12/31 10:59:33;;;;;;;16.58;3.97;;;;;;;-145.00;100.00;60578.66;5074199;28;20064;-52
2021/12/31 11:02:02;;;;;;;18.65;4.13;;;;;;;-145.00;100.00;60578.66;5074142;28;20470;-53
2021/12/31 11:04:35;;;;;;;16.98;4.60;;;;;;;-145.00;100.00;60578.66;5074064;28;20056;-51
2021/12/31 11:07:04;;;;;;;23.85;5.97;;;;;;;-145.00;100.00;60578.66;5074555;28;20068;-51
2021/12/31 11:09:33;;;;;;;17.45;3.85;;;;;;;-145.00;100.00;60578.66;5074215;28;20056;-50
2021/12/31 11:12:03;;;;;;;16.50;4.55;;;;;;;-145.00;100.00;60578.66;5075303;28;20060;-52